Time;durP1;ratioP1;P1;durP2;ratioP2;P2;SDS_P1;SDS_P2;PMS_P1;PMS_P2;Temp;Humidity;BMP_temperature;BMP_pressure;BME280_temperature;BME280_humidity;BME280_pressure;Samples;Min_cycle;Max_cycle;Signal;HPM_P1;HPM_P2
2021/10/18 00:01:44;;;;;;;28.27;17.60;;;;;;;9.62;69.87;100887.66;2060011;85;27735;-63
2021/10/18 00:04:48;;;;;;;27.98;17.12;;;;;;;9.60;69.94;100893.53;2080224;85;28716;-64
2021/10/18 00:07:52;;;;;;;30.88;17.48;;;;;;;9.61;70.11;100895.72;2065310;85;31023;-63
2021/10/18 00:10:55;;;;;;;29.20;16.90;;;;;;;9.62;70.29;100890.78;2092869;83;33026;-63
2021/10/18 00:13:59;;;;;;;25.85;16.05;;;;;;;9.62;70.39;100893.02;2104516;83;30232;-63
2021/10/18 00:17:03;;;;;;;22.98;16.32;;;;;;;9.61;70.44;100895.28;2100621;83;27766;-64
2021/10/18 00:20:11;;;;;;;32.38;16.23;;;;;;;9.61;70.64;100891.27;2097224;83;29558;-63
2021/10/18 00:23:16;;;;;;;27.98;15.48;;;;;;;9.62;70.73;100893.46;2085053;83;31067;-63
2021/10/18 00:26:22;;;;;;;26.10;15.32;;;;;;;9.61;70.86;100898.40;2107888;83;32176;-63
2021/10/18 00:29:27;;;;;;;22.58;14.33;;;;;;;9.61;70.98;100895.72;2073432;84;29358;-64
2021/10/18 00:32:31;;;;;;;26.52;15.88;;;;;;;9.61;71.08;100901.08;2073873;84;27891;-63
2021/10/18 00:35:37;;;;;;;31.00;15.40;;;;;;;9.59;71.33;100894.45;2072921;85;29717;-64
2021/10/18 00:38:42;;;;;;;26.50;15.38;;;;;;;9.58;71.45;100896.27;2077816;83;31082;-61
2021/10/18 00:41:46;;;;;;;26.48;15.20;;;;;;;9.58;71.47;100896.27;2086673;83;33007;-63
2021/10/18 00:44:52;;;;;;;23.27;14.60;;;;;;;9.56;71.56;100894.56;2105466;83;29444;-62
2021/10/18 00:47:58;;;;;;;23.77;14.53;;;;;;;9.56;71.85;100895.45;2094256;83;27750;-62
2021/10/18 00:51:04;;;;;;;28.90;15.40;;;;;;;9.57;71.95;100893.19;2087951;83;28739;-62
2021/10/18 00:54:11;;;;;;;27.80;14.05;;;;;;;9.60;72.05;100898.02;2095024;84;32083;-67
2021/10/18 00:57:17;;;;;;;22.37;13.13;;;;;;;9.60;72.01;100896.69;2070786;84;35408;-63
2021/10/18 01:00:23;;;;;;;24.07;13.32;;;;;;;9.60;72.15;100894.01;2071199;84;29521;-63
2021/10/18 01:03:29;;;;;;;26.95;14.10;;;;;;;9.61;72.33;100895.72;2063703;83;27753;-64
2021/10/18 01:06:34;;;;;;;22.58;15.78;;;;;;;9.60;72.35;100893.53;2067873;84;28859;-63
2021/10/18 01:09:40;;;;;;;27.77;15.63;;;;;;;9.61;72.48;100897.06;2049208;84;31047;-65
2021/10/18 01:12:45;;;;;;;28.73;14.85;;;;;;;9.62;72.53;100895.69;2103696;83;32352;-64
2021/10/18 01:15:51;;;;;;;25.70;14.78;;;;;;;9.64;72.66;100892.95;2098481;84;30155;-64
2021/10/18 01:18:55;;;;;;;26.00;14.58;;;;;;;9.65;72.80;100892.02;2095842;84;28158;-64
2021/10/18 01:22:05;;;;;;;27.83;15.13;;;;;;;9.63;72.74;100897.88;2101509;83;28661;-65
2021/10/18 01:25:11;;;;;;;24.00;14.50;;;;;;;9.64;72.94;100895.62;2089782;83;32247;-63
2021/10/18 01:28:17;;;;;;;23.45;13.48;;;;;;;9.61;72.88;100899.29;2074262;84;33906;-65
2021/10/18 01:31:20;;;;;;;23.15;12.68;;;;;;;9.61;73.07;100895.72;2049554;83;29457;-64
2021/10/18 01:34:27;;;;;;;21.05;13.40;;;;;;;9.60;73.09;100899.36;2099799;83;27966;-65
2021/10/18 01:37:32;;;;;;;24.87;14.28;;;;;;;9.58;73.15;100896.27;2079572;83;28707;-64
2021/10/18 01:40:38;;;;;;;29.00;14.65;;;;;;;9.58;73.25;100896.27;2009440;88;31039;-64
2021/10/18 01:43:41;;;;;;;22.80;12.33;;;;;;;9.57;73.35;100898.98;2093720;83;32397;-64
2021/10/18 01:46:46;;;;;;;25.45;12.98;;;;;;;9.57;73.38;100899.88;2087863;84;30618;-65
2021/10/18 01:49:52;;;;;;;24.77;12.00;;;;;;;9.56;73.53;100895.45;2107889;83;27825;-64
2021/10/18 01:52:56;;;;;;;19.92;11.40;;;;;;;9.57;73.56;100901.66;2094685;83;28654;-65
2021/10/18 01:56:01;;;;;;;18.05;11.63;;;;;;;9.56;73.59;100903.48;2059695;84;31084;-65
2021/10/18 01:59:03;;;;;;;19.90;10.40;;;;;;;9.55;73.64;100906.19;2091932;83;32964;-65
2021/10/18 02:02:09;;;;;;;20.60;11.35;;;;;;;9.56;73.76;100898.58;2096826;83;30523;-65
2021/10/18 02:05:14;;;;;;;18.30;10.75;;;;;;;9.54;73.83;100894.63;2101274;83;27658;-66
2021/10/18 02:08:20;;;;;;;18.37;11.00;;;;;;;9.55;74.02;100899.50;2060235;84;28871;-64
2021/10/18 02:11:26;;;;;;;17.87;11.08;;;;;;;9.56;73.98;100903.92;2071467;84;31089;-66
2021/10/18 02:14:31;;;;;;;19.87;12.03;;;;;;;9.57;74.16;100907.90;2059372;84;32382;-65
2021/10/18 02:17:35;;;;;;;17.17;10.60;;;;;;;9.53;74.06;100902.69;2040862;85;29365;-63
2021/10/18 02:20:41;;;;;;;17.45;10.93;;;;;;;9.51;74.15;100900.08;2090636;83;27579;-62
2021/10/18 02:23:47;;;;;;;17.07;11.30;;;;;;;9.52;74.28;100900.94;2087358;84;29479;-64
2021/10/18 02:26:52;;;;;;;21.75;12.05;;;;;;;9.51;74.37;100908.10;2093437;83;31100;-63
2021/10/18 02:29:58;;;;;;;17.25;10.38;;;;;;;9.53;74.46;100906.25;2094794;83;33166;-64
2021/10/18 02:33:03;;;;;;;15.98;10.20;;;;;;;9.55;74.47;100909.75;2073688;83;29393;-63
2021/10/18 02:36:06;;;;;;;15.20;10.10;;;;;;;9.56;74.48;100899.47;2103416;83;27739;-64
2021/10/18 02:39:08;;;;;;;17.85;10.93;;;;;;;9.56;74.55;100905.26;2099792;83;28791;-64
2021/10/18 02:42:11;;;;;;;18.55;10.18;;;;;;;9.56;74.52;100900.80;2100938;83;31452;-64
2021/10/18 02:45:13;;;;;;;15.98;10.38;;;;;;;9.57;74.64;100898.98;2101652;83;32768;-64
2021/10/18 02:48:20;;;;;;;12.93;9.40;;;;;;;9.58;74.63;100902.06;2091417;83;28782;-63
2021/10/18 02:51:26;;;;;;;17.12;10.63;;;;;;;9.55;74.65;100900.39;2098579;83;27774;-64
2021/10/18 02:54:31;;;;;;;16.73;10.95;;;;;;;9.55;74.69;100896.83;2031112;86;28710;-67
2021/10/18 02:57:36;;;;;;;17.27;9.48;;;;;;;9.55;74.82;100895.48;2014282;86;31079;-69
2021/10/18 03:00:41;;;;;;;16.32;9.93;;;;;;;9.54;74.76;100896.41;2021201;86;32973;-64
2021/10/18 03:03:46;;;;;;;14.15;9.53;;;;;;;9.55;74.84;100896.83;2091066;84;29370;-64
2021/10/18 03:06:52;;;;;;;17.07;10.18;;;;;;;9.56;74.83;100905.26;2064179;84;27871;-63
2021/10/18 03:09:58;;;;;;;16.20;8.73;;;;;;;9.55;74.94;100912.42;2033695;83;28698;-63
2021/10/18 03:13:04;;;;;;;15.13;8.95;;;;;;;9.53;74.85;100909.38;2086549;84;31151;-63
2021/10/18 03:16:09;;;;;;;14.23;8.23;;;;;;;9.54;75.01;100916.02;2066990;84;33847;-65
2021/10/18 03:19:15;;;;;;;10.90;7.85;;;;;;;9.52;74.92;100913.86;2105814;83;29363;-65
2021/10/18 03:22:20;;;;;;;11.25;8.18;;;;;;;9.51;74.96;100917.95;2092503;84;27760;-64
2021/10/18 03:25:26;;;;;;;15.18;7.67;;;;;;;9.52;74.98;100921.00;2081115;84;28670;-64
2021/10/18 03:28:32;;;;;;;13.20;8.23;;;;;;;9.49;74.97;100918.45;2048984;86;31923;-64
2021/10/18 03:31:36;;;;;;;15.90;8.45;;;;;;;9.50;75.08;100924.22;2092414;84;33081;-64
2021/10/18 03:34:41;;;;;;;16.82;8.00;;;;;;;9.49;75.17;100930.02;2090931;84;30157;-64
2021/10/18 03:37:47;;;;;;;14.15;7.87;;;;;;;9.48;75.14;100934.95;2097729;83;27841;-63
2021/10/18 03:40:52;;;;;;;14.35;8.58;;;;;;;9.47;75.20;100932.34;2097285;83;28739;-63
2021/10/18 03:43:57;;;;;;;17.35;8.75;;;;;;;9.47;75.27;100942.56;2116069;83;31041;-64
2021/10/18 03:47:03;;;;;;;11.40;7.90;;;;;;;9.46;75.20;100942.15;2089278;83;33812;-65
2021/10/18 03:50:11;;;;;;;10.78;8.20;;;;;;;9.46;75.23;100944.83;2098416;83;29339;-63
2021/10/18 03:53:16;;;;;;;16.95;9.10;;;;;;;9.49;75.33;100950.55;2098245;83;27613;-64
2021/10/18 03:56:22;;;;;;;13.45;9.33;;;;;;;9.49;75.31;100951.41;2063537;84;28314;-65
2021/10/18 03:59:27;;;;;;;16.12;9.60;;;;;;;9.49;75.41;100950.55;2056892;84;31042;-64
2021/10/18 04:02:31;;;;;;;14.60;10.32;;;;;;;9.47;75.35;100950.59;2059223;85;33176;-65
2021/10/18 04:05:37;;;;;;;12.75;8.98;;;;;;;9.43;75.44;100950.30;2044342;83;30264;-64
2021/10/18 04:08:40;;;;;;;17.35;9.55;;;;;;;9.41;75.58;100946.33;2092961;83;28267;-65
2021/10/18 04:11:42;;;;;;;21.35;10.10;;;;;;;9.41;75.57;100953.02;2098940;83;28731;-64
2021/10/18 04:14:49;;;;;;;14.25;9.80;;;;;;;9.41;75.52;100961.03;2094600;83;32250;-65
2021/10/18 04:17:54;;;;;;;14.98;9.85;;;;;;;9.40;75.66;100962.44;2105688;83;33018;-64
2021/10/18 04:21:05;;;;;;;17.25;10.13;;;;;;;9.39;75.62;100966.89;2117201;83;29317;-64
2021/10/18 04:24:09;;;;;;;16.62;10.30;;;;;;;9.40;75.75;100969.98;2071977;84;27851;-64
2021/10/18 04:27:15;;;;;;;15.55;10.23;;;;;;;9.39;75.78;100977.59;2104958;83;29551;-65
2021/10/18 04:30:17;;;;;;;14.93;10.10;;;;;;;9.40;75.77;100971.32;2067051;84;31022;-63
2021/10/18 04:33:23;;;;;;;18.95;10.65;;;;;;;9.41;75.88;100967.72;2070741;84;34187;-65
2021/10/18 04:36:29;;;;;;;13.43;10.80;;;;;;;9.43;75.86;100978.39;2095653;83;29524;-64
2021/10/18 04:39:33;;;;;;;20.05;11.10;;;;;;;9.44;75.91;100980.11;2092210;83;27715;-64
2021/10/18 04:42:39;;;;;;;17.73;11.55;;;;;;;9.43;75.99;100974.38;2096459;84;29455;-64
2021/10/18 04:45:44;;;;;;;20.82;11.33;;;;;;;9.45;75.91;100987.20;2056375;85;31865;-64
2021/10/18 04:48:50;;;;;;;14.87;11.12;;;;;;;9.45;75.94;100979.18;2053635;86;34245;-64
2021/10/18 04:51:55;;;;;;;16.77;10.68;;;;;;;9.46;75.98;100979.59;2114363;83;29339;-65
2021/10/18 04:55:01;;;;;;;21.35;12.10;;;;;;;9.48;76.00;100981.75;2110145;83;27753;-64
2021/10/18 04:58:07;;;;;;;16.35;11.88;;;;;;;9.50;76.08;100979.05;2102943;83;28705;-65
2021/10/18 05:01:11;;;;;;;23.62;13.05;;;;;;;9.51;76.05;100977.65;2065809;84;31026;-64
2021/10/18 05:04:14;;;;;;;19.00;12.82;;;;;;;9.50;76.04;100985.26;2071486;84;33962;-65
2021/10/18 05:07:20;;;;;;;24.37;15.03;;;;;;;9.51;76.19;100984.81;2060715;84;29347;-64
2021/10/18 05:10:23;;;;;;;23.70;13.93;;;;;;;9.50;76.11;100988.41;2101651;83;27710;-64
2021/10/18 05:13:26;;;;;;;22.15;12.88;;;;;;;9.51;76.17;100992.36;2077533;84;29579;-64
2021/10/18 05:16:29;;;;;;;20.88;14.20;;;;;;;9.52;76.17;100994.11;2096728;83;32253;-64
2021/10/18 05:19:33;;;;;;;20.97;13.18;;;;;;;9.54;76.21;100998.05;2091818;83;32992;-65
2021/10/18 05:22:38;;;;;;;17.73;13.45;;;;;;;9.55;76.22;101012.73;2087385;84;30137;-64
2021/10/18 05:25:44;;;;;;;18.67;13.30;;;;;;;9.54;76.20;101008.75;2091166;84;27699;-64
2021/10/18 05:28:49;;;;;;;21.02;12.78;;;;;;;9.52;76.14;101014.17;2089728;83;28663;-64
2021/10/18 05:31:56;;;;;;;21.73;13.35;;;;;;;9.53;76.31;101021.72;2106768;83;31046;-69
2021/10/18 05:35:01;;;;;;;18.70;13.60;;;;;;;9.54;76.28;101023.02;2101094;84;33057;-63
2021/10/18 05:38:04;;;;;;;19.82;13.80;;;;;;;9.57;76.29;101034.06;2064613;84;29196;-63
2021/10/18 05:41:09;;;;;;;21.23;13.22;;;;;;;9.60;76.33;101035.78;2089617;83;28060;-63
2021/10/18 05:44:15;;;;;;;18.73;12.90;;;;;;;9.58;76.19;101035.38;2091111;83;28645;-64
2021/10/18 05:47:20;;;;;;;15.80;12.20;;;;;;;9.59;76.23;101044.25;2054992;85;31204;-63
2021/10/18 05:50:28;;;;;;;16.40;12.88;;;;;;;9.59;76.21;101052.28;1997672;87;33050;-64
2021/10/18 05:53:34;;;;;;;20.52;13.50;;;;;;;9.58;76.13;101054.55;2040353;85;29372;-64
2021/10/18 05:56:40;;;;;;;21.62;13.53;;;;;;;9.58;76.20;101062.56;2004060;86;27861;-64
2021/10/18 05:59:45;;;;;;;21.07;12.15;;;;;;;9.57;76.15;101067.50;2007470;86;28677;-64
2021/10/18 06:02:50;;;;;;;18.05;12.40;;;;;;;9.57;76.26;101065.72;2055527;85;31078;-64
2021/10/18 06:05:54;;;;;;;;;;;;;;;9.58;76.29;101076.84;2030291;85;33844;-63
2021/10/18 06:08:57;;;;;;;25.52;11.60;;;;;;;9.57;76.25;101077.76;2045394;86;30177;-64
2021/10/18 06:11:59;;;;;;;17.25;11.45;;;;;;;9.55;76.25;101077.37;2046492;85;27823;-63
2021/10/18 06:15:06;;;;;;;17.60;12.23;;;;;;;9.57;76.33;101072.86;2011773;86;29129;-72
2021/10/18 06:18:12;;;;;;;18.48;12.33;;;;;;;9.58;76.36;101078.63;1992935;86;31083;-71
2021/10/18 06:21:18;;;;;;;17.20;11.83;;;;;;;9.58;76.35;101079.95;2023396;86;33003;-68
2021/10/18 06:24:23;;;;;;;19.87;13.28;;;;;;;9.60;76.40;101091.48;2051461;85;30131;-63
2021/10/18 06:27:29;;;;;;;17.98;12.20;;;;;;;9.64;76.46;101088.23;2080348;83;27659;-66
2021/10/18 06:30:35;;;;;;;17.45;12.18;;;;;;;9.69;76.52;101093.84;2105185;84;29533;-64
2021/10/18 06:33:41;;;;;;;18.65;11.80;;;;;;;9.74;76.42;101091.04;2101517;83;31896;-65
2021/10/18 06:36:45;;;;;;;17.70;11.88;;;;;;;9.80;76.34;101095.31;2093399;83;33838;-64
2021/10/18 06:39:49;;;;;;;19.70;11.68;;;;;;;9.84;76.34;101099.64;2096387;83;30174;-65
2021/10/18 06:42:55;;;;;;;20.48;11.55;;;;;;;9.88;76.32;101107.50;2067789;84;27976;-64
2021/10/18 06:45:56;;;;;;;18.23;12.30;;;;;;;9.93;76.29;101111.83;2079916;84;28892;-65
2021/10/18 06:48:59;;;;;;;19.62;12.53;;;;;;;9.97;76.33;101122.38;2061415;84;31115;-65
2021/10/18 06:52:05;;;;;;;14.63;11.05;;;;;;;10.01;76.14;101124.48;2066272;84;34158;-64
2021/10/18 06:55:12;;;;;;;18.55;12.10;;;;;;;10.03;76.26;101128.84;2053986;85;29370;-67
2021/10/18 06:58:18;;;;;;;16.00;11.75;;;;;;;10.07;76.22;101126.95;2105377;82;27738;-64
2021/10/18 07:01:24;;;;;;;17.40;12.37;;;;;;;10.11;76.12;101134.41;2100802;83;28928;-64
2021/10/18 07:04:33;;;;;;;18.25;11.78;;;;;;;10.15;76.26;101135.59;2093843;83;31035;-65
2021/10/18 07:07:39;;;;;;;16.70;12.20;;;;;;;10.23;76.23;101129.96;2106194;83;33425;-64
2021/10/18 07:10:45;;;;;;;15.68;10.95;;;;;;;10.31;76.16;101132.37;2093979;83;29364;-65
2021/10/18 07:13:51;;;;;;;15.88;11.78;;;;;;;10.36;76.19;101142.47;2096575;83;27915;-64
2021/10/18 07:16:56;;;;;;;19.57;10.88;;;;;;;10.44;76.19;101143.09;2076748;84;29636;-64
2021/10/18 07:20:00;;;;;;;16.75;11.48;;;;;;;10.49;76.10;101148.31;2065959;83;30223;-63
2021/10/18 07:23:16;;;;;;;18.35;11.43;;;;;;;10.52;75.96;101150.85;2083061;84;33036;-63
2021/10/18 07:26:11;;;;;;;17.30;11.70;;;;;;;10.56;75.85;101143.13;2088396;84;29353;-64
2021/10/18 07:29:17;;;;;;;15.03;11.08;;;;;;;10.60;75.81;101146.11;2084577;84;27733;-64
2021/10/18 07:32:23;;;;;;;17.55;11.28;;;;;;;10.67;75.82;101143.22;2064800;83;28684;-64
2021/10/18 07:35:32;;;;;;;17.98;10.32;;;;;;;10.74;75.82;101152.31;2069889;84;31068;-64
2021/10/18 07:38:35;;;;;;;18.57;11.45;;;;;;;10.78;75.59;101151.25;2061549;84;33799;-65
2021/10/18 07:41:41;;;;;;;17.27;10.45;;;;;;;10.80;75.55;101151.21;2086997;84;29532;-64
2021/10/18 07:44:46;;;;;;;16.40;10.82;;;;;;;10.87;75.53;101154.05;2095887;83;27805;-64
2021/10/18 07:47:52;;;;;;;16.32;11.25;;;;;;;10.94;75.42;101154.70;2087462;83;28674;-64
2021/10/18 07:50:57;;;;;;;18.35;12.65;;;;;;;10.99;75.30;101154.55;2069835;83;31667;-64
2021/10/18 07:54:03;;;;;;;19.42;11.45;;;;;;;11.03;75.13;101162.86;2090759;84;33844;-65
2021/10/18 07:57:09;;;;;;;18.45;10.82;;;;;;;11.10;75.28;101167.94;2086901;84;29343;-66
2021/10/18 08:00:15;;;;;;;21.12;11.40;;;;;;;11.16;75.09;101159.26;2090227;84;28218;-64
2021/10/18 08:03:20;;;;;;;13.85;10.03;;;;;;;11.22;74.99;101163.92;2088116;83;28695;-65
2021/10/18 08:06:26;;;;;;;15.13;10.53;;;;;;;11.28;74.73;101172.19;2085907;84;30473;-64
2021/10/18 08:09:28;;;;;;;18.48;11.90;;;;;;;11.33;74.61;101167.53;2082197;83;33011;-64
2021/10/18 08:12:34;;;;;;;21.23;10.98;;;;;;;11.40;74.52;101167.72;2096440;84;29761;-64
2021/10/18 08:15:38;;;;;;;14.55;10.95;;;;;;;11.45;74.39;101176.02;2087333;84;27828;-64
2021/10/18 08:18:44;;;;;;;18.85;11.45;;;;;;;11.47;74.25;101165.66;2100773;83;33151;-64
2021/10/18 08:21:47;;;;;;;18.30;11.18;;;;;;;11.49;74.25;101173.19;2068573;84;31087;-64
2021/10/18 08:24:53;;;;;;;16.35;10.88;;;;;;;11.50;73.99;101179.41;2071483;84;34193;-64
2021/10/18 08:27:56;;;;;;;18.73;11.40;;;;;;;11.45;73.80;101176.92;2075919;84;29351;-63
2021/10/18 08:30:58;;;;;;;19.50;11.40;;;;;;;11.44;73.95;101180.53;2061103;84;27617;-65
2021/10/18 08:34:00;;;;;;;15.85;10.90;;;;;;;11.49;74.06;101187.05;2054829;84;28787;-64
2021/10/18 08:37:05;;;;;;;22.73;11.33;;;;;;;11.51;73.86;101187.39;2100836;83;30996;-65
2021/10/18 08:40:12;;;;;;;16.52;10.72;;;;;;;11.49;73.75;101187.94;2111861;83;33005;-64
2021/10/18 08:44:13;;;;;;;15.28;9.70;;;;;;;11.50;73.69;101187.46;2092584;83;30146;-64
2021/10/18 08:46:34;;;;;;;17.42;10.60;;;;;;;11.49;73.46;101193.77;2054000;85;27821;-64
2021/10/18 08:49:40;;;;;;;20.15;10.85;;;;;;;11.52;73.52;101197.67;2063030;85;28649;-63
2021/10/18 08:52:47;;;;;;;16.37;10.30;;;;;;;11.48;73.42;101202.74;2056912;84;31029;-65
2021/10/18 08:55:53;;;;;;;17.15;10.20;;;;;;;11.48;73.52;101206.77;2092888;83;33806;-64
2021/10/18 08:58:59;;;;;;;16.50;9.65;;;;;;;11.46;73.52;101213.55;2037618;86;28969;-63
2021/10/18 09:02:05;;;;;;;19.90;10.15;;;;;;;11.46;73.39;101212.66;2081572;84;28304;-64
2021/10/18 09:05:12;;;;;;;11.83;8.88;;;;;;;11.45;73.33;101223.87;2039329;85;29478;-64
2021/10/18 09:08:43;;;;;;;12.90;9.03;;;;;;;11.45;73.30;101214.48;2018592;86;32424;-65
2021/10/18 09:11:47;;;;;;;17.67;10.38;;;;;;;11.48;73.45;101212.13;2040131;85;32999;-64
2021/10/18 09:14:54;;;;;;;18.10;9.90;;;;;;;11.52;73.43;101209.75;2072038;85;29446;-65
2021/10/18 09:18:01;;;;;;;15.95;8.90;;;;;;;11.59;73.32;101213.92;2069671;85;27818;-63
2021/10/18 09:21:07;;;;;;;14.85;9.95;;;;;;;11.61;73.23;101215.22;2096154;83;28869;-63
2021/10/18 09:24:31;;;;;;;17.60;9.88;;;;;;;11.65;73.30;101206.98;2099664;83;31852;-65
2021/10/18 09:27:36;;;;;;;16.10;9.43;;;;;;;11.72;73.35;101208.09;2104485;83;32584;-63
2021/10/18 09:30:45;;;;;;;23.67;9.33;;;;;;;11.78;73.15;101206.48;2089660;83;30147;-63
2021/10/18 09:33:56;;;;;;;17.90;9.20;;;;;;;11.81;73.00;101205.92;2086158;83;27734;-64
2021/10/18 09:37:12;;;;;;;14.47;8.88;;;;;;;11.89;72.95;101204.27;2096952;83;28667;-63
2021/10/18 09:40:39;;;;;;;15.98;10.10;;;;;;;11.94;72.94;101205.41;2067662;84;31243;-65
2021/10/18 09:43:50;;;;;;;13.32;9.10;;;;;;;12.06;72.99;101208.11;2070692;83;33100;-63
2021/10/18 10:52:16;;;;;;;77.20;27.35;;;;;;;13.06;69.77;101215.87;2106108;83;33424;-64
2021/10/18 10:55:33;;;;;;;47.45;18.42;;;;;;;13.07;70.02;101218.10;2104884;83;29366;-64
2021/10/18 10:58:49;;;;;;;21.55;10.88;;;;;;;13.09;69.80;101220.22;2104080;83;27737;-64
2021/10/18 11:02:12;;;;;;;29.18;12.90;;;;;;;13.08;69.67;101223.85;2083684;84;28655;-64
2021/10/18 11:05:20;;;;;;;80.90;30.32;;;;;;;13.10;69.71;101219.28;2090617;84;32028;-65
2021/10/18 11:08:49;;;;;;;152.72;58.65;;;;;;;13.14;69.78;101225.42;2087248;84;34018;-70
2021/10/18 11:11:55;;;;;;;88.17;35.95;;;;;;;13.16;69.64;101219.47;2086433;84;30179;-64
2021/10/18 11:15:03;;;;;;;42.98;24.98;;;;;;;13.17;69.62;101222.11;2068740;84;27839;-65
2021/10/18 11:21:19;;;;;;;16.80;11.48;;;;;;;13.15;69.55;101217.27;2084527;84;31144;-65
2021/10/18 11:24:25;;;;;;;17.00;9.63;;;;;;;13.17;69.44;101215.38;2084290;83;32945;-64
2021/10/18 11:27:36;;;;;;;16.20;8.58;;;;;;;13.20;69.32;101216.59;2091941;83;29402;-63
2021/10/18 11:30:42;;;;;;;21.25;9.90;;;;;;;13.25;69.44;101208.75;2071472;83;27749;-64
2021/10/18 11:34:19;;;;;;;18.87;10.95;;;;;;;13.32;69.49;101215.12;2099549;83;28827;-64
2021/10/18 11:37:21;;;;;;;27.00;14.05;;;;;;;13.45;69.51;101207.39;2028268;86;31253;-64
2021/10/18 11:40:48;;;;;;;26.52;14.68;;;;;;;13.58;69.32;101201.42;2017866;87;34122;-65
2021/10/18 11:43:49;;;;;;;16.23;9.40;;;;;;;13.71;69.34;101192.28;2011251;87;29571;-64
2021/10/18 11:46:55;;;;;;;18.23;9.73;;;;;;;13.82;69.04;101192.63;1947432;89;27967;-64
2021/10/18 11:50:15;;;;;;;24.90;13.70;;;;;;;13.95;68.83;101181.67;1976690;89;29489;-65
2021/10/18 11:53:25;;;;;;;27.90;14.53;;;;;;;14.12;68.71;101178.61;1977829;89;31876;-64
2021/10/18 11:56:27;;;;;;;19.37;10.93;;;;;;;14.30;68.63;101174.58;1977504;88;33003;-63
2021/10/18 11:59:33;;;;;;;22.75;11.08;;;;;;;14.49;68.78;101179.39;1952328;88;29405;-64
2021/10/18 12:02:42;;;;;;;20.48;9.75;;;;;;;14.67;68.47;101176.22;1972674;87;28082;-64
2021/10/18 12:05:52;;;;;;;16.07;8.13;;;;;;;14.82;68.11;101168.30;1991010;87;28678;-64
2021/10/18 12:08:57;;;;;;;15.18;8.93;;;;;;;14.93;67.16;101165.03;2027019;86;31059;-64
2021/10/18 12:12:13;;;;;;;17.73;10.08;;;;;;;15.03;67.25;101166.26;2052211;84;33958;-65
2021/10/18 12:15:20;;;;;;;13.43;7.72;;;;;;;15.19;67.32;101164.95;2050107;84;30160;-65
2021/10/18 12:18:40;;;;;;;18.87;9.48;;;;;;;15.34;66.88;101160.51;2093383;83;27801;-65
2021/10/18 12:21:44;;;;;;;15.95;8.35;;;;;;;15.43;66.73;101169.46;2090283;83;29563;-65
2021/10/18 12:25:02;;;;;;;11.13;6.87;;;;;;;15.47;66.16;101168.80;2091702;83;31050;-63
2021/10/18 12:28:33;;;;;;;15.60;6.00;;;;;;;15.51;66.03;101166.33;2025071;86;33935;-64
2021/10/18 12:31:46;;;;;;;14.28;6.65;;;;;;;15.50;65.65;101161.39;2096709;83;30339;-71
2021/10/18 12:34:55;;;;;;;12.00;6.42;;;;;;;15.53;64.84;101166.23;2082311;83;27674;-65
2021/10/18 12:38:02;;;;;;;13.43;7.75;;;;;;;15.55;65.24;101167.02;2071898;85;28688;-64
2021/10/18 12:41:17;;;;;;;11.03;6.65;;;;;;;15.59;65.39;101170.80;2050940;85;31057;-64
2021/10/18 12:44:33;;;;;;;9.10;6.42;;;;;;;15.65;65.21;101166.41;2074520;84;33034;-66
2021/10/18 12:47:40;;;;;;;10.68;6.05;;;;;;;15.65;64.61;101169.58;2080721;84;29431;-66
2021/10/18 12:50:47;;;;;;;12.00;5.58;;;;;;;15.62;64.55;101167.08;2096533;83;27910;-63
2021/10/18 12:53:53;;;;;;;8.78;5.20;;;;;;;15.66;63.89;101174.02;2094328;83;28734;-64
2021/10/18 12:57:15;;;;;;;9.05;5.83;;;;;;;15.61;63.92;101168.03;2103196;83;31856;-65
2021/10/18 13:00:27;;;;;;;10.05;6.03;;;;;;;15.67;64.12;101169.51;2098295;83;33504;-66
2021/10/18 13:03:31;;;;;;;13.03;5.70;;;;;;;15.75;63.73;101163.16;2079530;83;29377;-63
2021/10/18 13:06:37;;;;;;;9.58;5.45;;;;;;;15.70;63.31;101135.57;2070753;84;27807;-64
2021/10/18 13:09:42;;;;;;;9.70;5.40;;;;;;;15.70;63.31;101135.57;2100445;83;28798;-64
2021/10/18 13:12:46;;;;;;;13.15;5.83;;;;;;;15.80;63.11;101138.11;2080552;83;31040;-65
2021/10/18 13:15:54;;;;;;;12.82;5.47;;;;;;;16.02;63.04;101156.67;2027486;86;34274;-64
2021/10/18 13:18:56;;;;;;;13.53;5.95;;;;;;;16.08;62.72;101157.67;2005949;87;29548;-63
2021/10/18 13:22:01;;;;;;;11.93;7.55;;;;;;;16.16;62.48;101153.16;2041241;84;28293;-63
2021/10/18 13:25:06;;;;;;;21.23;10.10;;;;;;;16.16;62.48;101153.16;2063200;85;28690;-63
2021/10/18 13:28:12;;;;;;;18.65;7.80;;;;;;;16.16;62.04;101151.81;2036581;84;31058;-63
2021/10/18 13:31:17;;;;;;;11.18;5.78;;;;;;;16.02;62.10;101136.40;2049147;85;33167;-63
2021/10/18 13:34:22;;;;;;;18.65;7.15;;;;;;;16.02;62.10;101136.40;2028152;86;36717;-61
2021/10/18 13:37:26;;;;;;;15.13;7.08;;;;;;;16.18;62.29;101153.95;2037120;86;27867;-63
2021/10/18 13:40:33;;;;;;;14.45;8.00;;;;;;;16.17;61.73;101149.50;2027654;86;29351;-63
2021/10/18 13:43:38;;;;;;;16.25;7.00;;;;;;;16.14;61.76;101151.03;2018981;86;31123;-63
2021/10/18 13:46:44;;;;;;;10.20;5.55;;;;;;;16.13;61.44;101155.19;2042866;83;33053;-62
2021/10/18 13:49:49;;;;;;;11.48;4.33;;;;;;;15.98;61.57;101139.38;2074813;85;29340;-62
2021/10/18 13:52:56;;;;;;;8.93;4.92;;;;;;;15.98;61.57;101139.38;2045209;84;28123;-64
2021/10/18 13:55:58;;;;;;;25.12;10.08;;;;;;;16.08;61.42;101153.62;2100954;83;28647;-63
2021/10/18 13:59:04;;;;;;;11.55;5.00;;;;;;;16.10;61.37;101152.16;2094234;83;31385;-63
2021/10/18 14:02:13;;;;;;;9.48;4.58;;;;;;;16.05;60.75;101156.99;2083149;83;33002;-62
2021/10/18 14:05:18;;;;;;;8.78;4.87;;;;;;;16.01;60.75;101160.33;2100930;83;30157;-63
2021/10/18 14:08:23;;;;;;;7.80;3.98;;;;;;;15.97;60.59;101160.11;2103939;83;27635;-62
2021/10/18 14:11:28;;;;;;;8.45;4.55;;;;;;;15.93;60.75;101159.93;2102543;83;29491;-62
2021/10/18 14:14:33;;;;;;;10.60;4.92;;;;;;;15.86;60.31;101158.06;2105532;83;31030;-67
2021/10/18 14:17:36;;;;;;;11.20;5.67;;;;;;;15.78;60.50;101155.78;2051693;83;33773;-62
2021/10/18 14:20:40;;;;;;;11.53;4.62;;;;;;;15.44;60.70;101135.22;2094028;83;29359;-62
2021/10/18 14:23:46;;;;;;;12.50;6.15;;;;;;;15.44;60.70;101135.22;2086594;83;27756;-62
2021/10/18 14:26:49;;;;;;;12.88;5.60;;;;;;;15.43;60.18;101154.61;2087890;83;29468;-64
2021/10/18 14:29:52;;;;;;;14.15;7.95;;;;;;;15.30;60.28;101154.91;2096313;83;32098;-64
2021/10/18 14:32:58;;;;;;;19.37;9.33;;;;;;;15.18;60.65;101147.02;2099423;84;33776;-63
2021/10/18 14:36:02;;;;;;;23.35;11.90;;;;;;;15.07;60.99;101150.77;2072419;83;29412;-65
2021/10/18 14:39:08;;;;;;;19.57;10.13;;;;;;;14.94;61.16;101150.58;2080162;83;27941;-63
2021/10/18 14:42:15;;;;;;;15.75;8.98;;;;;;;14.82;61.32;101153.46;2070058;84;28740;-63
2021/10/18 14:48:25;;;;;;;20.92;10.40;;;;;;;14.54;61.26;101154.91;2069735;83;32998;-63
2021/10/18 14:51:29;;;;;;;12.88;5.58;;;;;;;14.41;61.42;101151.97;2102766;83;29357;-62
2021/10/18 14:54:36;;;;;;;9.15;4.90;;;;;;;14.28;61.34;101148.58;2094295;83;27759;-63
2021/10/18 14:57:39;;;;;;;9.58;4.33;;;;;;;14.13;61.73;101144.83;2097465;83;29514;-63
2021/10/18 15:00:45;;;;;;;9.88;4.20;;;;;;;14.01;61.83;101149.50;2096170;83;31068;-63
2021/10/18 15:03:56;;;;;;;11.33;5.60;;;;;;;13.90;62.36;101147.83;2065895;84;32969;-63
2021/10/18 15:07:05;;;;;;;19.40;8.73;;;;;;;13.80;62.66;101152.80;2114555;83;29356;-63
2021/10/18 15:10:08;;;;;;;17.57;8.75;;;;;;;13.68;62.60;101152.92;2089678;83;27828;-63
2021/10/18 15:13:14;;;;;;;7.15;5.12;;;;;;;13.55;62.74;101162.55;2099657;83;29069;-64
2021/10/18 15:16:20;;;;;;;17.32;8.55;;;;;;;13.42;62.69;101164.95;2068951;85;32028;-62
2021/10/18 15:19:25;;;;;;;15.23;6.28;;;;;;;13.27;62.99;101154.40;2090055;83;33827;-63
2021/10/18 15:22:28;;;;;;;;;;;;;;;13.14;63.06;101154.12;2094973;83;30162;-63
2021/10/18 15:25:34;;;;;;;9.58;5.50;;;;;;;13.00;63.14;101153.41;2044950;85;27683;-64
2021/10/18 15:28:38;;;;;;;18.77;6.10;;;;;;;12.85;63.50;101163.03;2004831;86;29741;-61